Latest Coastal Weather Observations for Cairns

IDQ60701

Issued at 2:02 am EST Thursday 25 August 2016 (issued every 10 minutes, with the page automatically refreshed every 10 minutes)

About coastal observations | Map of coastal stations | Coastal observations for QLD | Marine services | Other Formats
Station Details ID: 031011 Name: CAIRNS AERO Lat: -16.87 Lon: 145.75 Height: 2.22 m
Data from the previous 72 hours. | See also: Recent months at Cairns
Date/Time
EST
Temp
°C
Wind Pressure Rain since
9am
mm
Weather Cloud Vis
km
Sea
Height
m
Swell
Dir  Spd
kts
Gust
kts
hPa Trend Height
m
Period
s
Dir
25/01:30am 22.5 CALM 0 0 1010.4 - 0.0 - Mostly clear 10 - - - -
25/01:00am 22.8 CALM 0 0 1010.7 - 0.0 - Mostly clear 10 - - - -
25/12:30am 22.8 CALM 0 0 1010.9 - 0.0 - Mostly clear 10 - - - -
25/12:00am 23.2 NNE 1 4 1011.2 F 0.0 - Mostly clear 10 - - - -
 
Date/Time
EST
Temp
°C
Wind Pressure Rain since
9am
mm
Weather Cloud Vis
km
Sea
Height
m
Swell
Dir  Spd
kts
Gust
kts
hPa Trend Height
m
Period
s
Dir
24/11:30pm 23.4 NW 3 5 1011.4 - 0.0 - Partly cloudy 10 - - - -
24/11:00pm 23.7 CALM 0 0 1011.6 - 0.0 - Partly cloudy 10 - - - -
24/10:30pm 23.2 CALM 0 1 1011.6 - 0.0 - Mostly clear 10 - - - -
24/10:00pm 23.4 W 3 5 1011.5 - 0.0 - Mostly clear 10 - - - -
24/09:30pm 23.8 CALM 0 0 1011.4 - 0.0 - Mostly clear 10 - - - -
24/09:00pm 24.7 W 4 5 1011.3 R 0.0 - Mostly clear 10 - - - -
24/08:30pm 24.8 W 1 4 1011.1 - 0.0 - Partly cloudy 10 - - - -
24/08:00pm 24.7 W 4 5 1010.9 - 0.0 - Mostly clear 10 - - - -
24/07:30pm 24.6 WNW 5 6 1010.7 - 0.0 - Mostly clear 10 - - - -
24/07:00pm 24.6 WNW 5 6 1010.2 - 0.0 - Mostly clear 10 - - - -
24/06:30pm 24.7 NW 4 5 1009.7 - 0.0 - Mostly clear 10 - - - -
24/06:00pm 24.8 NNW 5 7 1009.3 F 0.0 - Partly cloudy 10 - - - -
24/05:30pm 25.2 N 6 9 1009.1 - 0.0 - Mostly clear 10 - - - -
24/05:00pm 25.6 NNW 7 9 1009.0 - 0.0 - Mostly clear 10 - - - -
24/04:30pm 26.2 N 8 10 1008.8 - 0.0 - Mostly clear 10 - - - -
24/04:00pm 26.7 NNW 7 9 1008.8 - 0.0 - Mostly clear 10 - - - -
24/03:30pm 26.2 N 9 12 1008.9 - 0.0 - Mostly clear 10 - - - -
24/03:00pm 26.5 N 7 9 1009.0 F 0.0 - Mostly clear 10 - - - -
24/02:30pm 26.8 NNE 10 13 1009.1 - 0.0 - Mostly clear 10 - - - -
24/02:00pm 27.4 NNE 10 15 1009.6 - 0.0 - Mostly clear 10 - - - -
24/01:30pm 27.1 NNE 10 14 1010.1 - 0.0 - Mostly clear 10 - - - -
24/01:00pm 28.0 NNE 9 13 1010.3 - 0.0 - Mostly clear 10 - - - -
24/12:30pm 27.3 NNE 10 14 1010.7 - 0.0 - Mostly clear 10 - - - -
24/12:00pm 27.0 NNE 9 11 1011.2 F 0.0 - Mostly clear 10 - - - -
24/11:30am 26.6 N 6 10 1011.8 - 0.0 - Mostly clear 10 - - - -
24/11:00am 27.6 NNE 8 11 1012.2 - 0.0 - Mostly clear 10 - - - -
24/10:30am 27.2 NNE 7 9 1012.7 - 0.0 - Mostly clear 10 - - - -
24/10:00am 27.5 NNE 7 8 1013.0 - 0.0 - Mostly clear 10 - - - -
24/09:30am 27.0 WNW 4 7 1013.2 - 0.0 - Mostly clear 10 - - - -
24/09:00am 25.5 E 1 4 1013.3 R 0.0 - Mostly clear 10 - - - -
24/08:30am 24.6 SE 1 4 1013.1 - 0.0 - - 10 - - - -
24/08:00am 23.5 NNW 1 3 1012.9 - 0.0 - Mostly clear 10 - - - -
24/07:30am 21.6 ESE 1 3 1012.5 - 0.0 - Mostly clear 10 - - - -
24/07:00am 19.8 SE 4 5 1012.1 - 0.0 - Mostly clear 10 - - - -
24/06:30am 18.8 WSW 3 5 1011.8 - 0.0 - Mostly clear 10 - - - -
24/06:00am 18.9 CALM 0 0 1011.4 R 0.0 - Mostly clear 10 - - - -
24/05:30am 18.8 CALM 0 0 1010.9 - 0.0 - - 10 - - - -
24/05:00am 19.3 CALM 0 0 1010.5 - 0.0 - - 10 - - - -
24/04:30am 19.1 CALM 0 0 1010.3 - 0.0 - - 10 - - - -
24/04:00am 19.1 CALM 0 0 1010.1 - 0.0 - - 10 - - - -
24/03:30am 18.7 CALM 0 0 1010.1 - 0.0 - Mostly clear 10 - - - -
24/03:00am 19.5 CALM 0 0 1010.0 F 0.0 - - 10 - - - -
24/02:30am 19.6 CALM 0 0 1010.3 - 0.0 - Mostly clear 10 - - - -
24/02:00am 19.4 N 2 5 1010.5 - 0.0 - Mostly clear 10 - - - -
24/01:30am 19.8 CALM 0 0 1010.9 - 0.0 - Mostly clear 10 - - - -
24/01:00am 20.2 CALM 0 0 1011.3 - 0.0 - Mostly clear 10 - - - -
24/12:30am 20.1 CALM 0 0 1011.7 - 0.0 - Partly cloudy 10 - - - -
24/12:00am 19.9 CALM 0 0 1012.0 F 0.0 - Mostly clear 10 - - - -
 
Date/Time
EST
Temp
°C
Wind Pressure Rain since
9am
mm
Weather Cloud Vis
km
Sea
Height
m
Swell
Dir  Spd
kts
Gust
kts
hPa Trend Height
m
Period
s
Dir
23/11:30pm 20.4 CALM 0 0 1011.9 - 0.0 - Mostly clear 10 - - - -
23/11:00pm 20.3 CALM 0 0 1012.1 - 0.0 - Partly cloudy 10 - - - -
23/10:30pm 20.8 CALM 0 0 1012.2 - 0.0 - Mostly clear 10 - - - -
23/10:00pm 21.2 CALM 0 0 1012.3 - 0.0 - Mostly clear 10 - - - -
23/09:30pm 21.4 CALM 0 0 1012.2 - 0.0 - Mostly clear 10 - - - -
23/09:00pm 22.0 CALM 0 0 1012.2 R 0.0 - Cloudy 10 - - - -
23/08:30pm 22.1 CALM 0 0 1011.8 - 0.0 - Partly cloudy 10 - - - -
23/08:00pm 22.2 CALM 0 0 1011.6 - 0.0 - Partly cloudy 10 - - - -
23/07:30pm 22.1 NE 2 4 1011.3 - 0.0 - Partly cloudy 10 - - - -
23/07:00pm 22.4 NNE 4 4 1010.9 - 0.0 - Mostly clear 10 - - - -
23/06:30pm 22.9 NNE 3 4 1010.5 - 0.0 - Mostly clear 10 - - - -
23/06:00pm 23.3 N 5 6 1010.2 S 0.0 - Mostly clear 10 - - - -
23/05:30pm 24.4 NNE 5 7 1009.9 - 0.0 - Mostly clear 10 - - - -
23/05:00pm 24.9 NE 6 8 1009.6 - 0.0 - Mostly clear 10 - - - -
23/04:30pm 25.2 NE 6 8 1009.5 - 0.0 - Mostly clear 10 - - - -
23/04:00pm 25.9 NNE 7 8 1009.4 - 0.0 - Mostly clear 10 - - - -
23/03:30pm 25.9 NNE 6 10 1009.5 - 0.0 - Mostly clear 10 - - - -
23/03:00pm 26.3 NNE 7 9 1009.6 F 0.0 - Mostly clear 10 - - - -
23/02:30pm 26.0 NNE 7 10 1009.8 - 0.0 - Mostly clear 10 - - - -
23/02:00pm 25.9 N 7 10 1010.2 - 0.0 - Mostly clear 10 - - - -
23/01:30pm 26.0 NNE 7 9 1010.7 - 0.0 - Mostly clear 10 - - - -
23/01:00pm 26.0 NNE 7 10 1011.0 - 0.0 - Mostly clear 10 - - - -
23/12:30pm 26.2 N 7 9 1011.6 - 0.0 - Mostly clear 10 - - - -
23/12:00pm 26.4 N 7 9 1012.1 F 0.0 - Mostly clear 10 - - - -
23/11:30am 26.6 NE 7 9 1012.6 - 0.0 - Mostly clear 10 - - - -
23/11:00am 26.7 NE 7 8 1013.0 - 0.0 - Mostly clear 10 - - - -
23/10:30am 26.7 ENE 3 5 1013.4 - 0.0 - Mostly clear 10 - - - -
23/10:00am 26.7 E 5 7 1013.6 - 0.0 - Mostly clear 10 - - - -
23/09:30am 25.4 SE 5 8 1013.7 - 0.0 - Mostly clear 10 - - - -
23/09:00am 24.2 SE 7 8 1014.0 F 0.0 - Mostly clear 10 - - - -
23/08:30am 23.0 WNW 1 4 1013.8 - 0.0 - Mostly clear 10 - - - -
23/08:00am 20.7 WNW 4 4 1013.6 - 0.0 - - 10 - - - -
23/07:30am 19.6 W 3 6 1013.4 - 0.0 - - 10 - - - -
23/07:00am 18.4 W 2 4 1013.2 - 0.0 - Mostly clear 10 - - - -
23/06:30am 18.0 W 3 4 1012.8 - 0.0 - Mostly clear 10 - - - -
23/06:00am 18.2 W 2 5 1012.6 R 0.0 - Mostly clear 10 - - - -
23/05:30am 19.1 SW 3 6 1012.3 - 0.0 - Mostly clear 10 - - - -
23/05:00am 19.3 SE 9 10 1012.0 - 0.0 - Mostly clear 10 - - - -
23/04:30am 18.8 SE 5 8 1012.0 - 0.0 - Mostly clear 10 - - - -
23/04:00am 19.5 S 5 8 1011.9 - 0.0 - Mostly clear 10 - - - -
23/03:30am 19.3 SSE 5 9 1012.1 - 0.0 - Mostly clear 10 - - - -
23/03:00am 19.4 S 2 5 1012.2 R 0.0 - Mostly clear 10 - - - -
23/02:30am 18.5 CALM 0 0 1012.3 - 0.0 - Mostly clear 10 - - - -
23/02:00am 19.1 WNW 3 4 1012.6 - 0.0 - Mostly clear 10 - - - -
23/01:30am 20.4 NW 3 4 1012.7 - 0.0 - Mostly clear 10 - - - -
23/01:00am 21.1 SSE 5 8 1012.9 - 0.0 - Mostly clear 10 - - - -
23/12:30am 20.5 ESE 7 9 1013.2 - 0.0 - Mostly clear 10 - - - -
23/12:00am 21.5 SSE 6 8 1013.3 R 0.0 - Mostly clear 10 - - - -
 
Date/Time
EST
Temp
°C
Wind Pressure Rain since
9am
mm
Weather Cloud Vis
km
Sea
Height
m
Swell
Dir  Spd
kts
Gust
kts
hPa Trend Height
m
Period
s
Dir
22/11:30pm 21.9 S 6 8 1013.5 - 0.0 - Mostly clear 10 - - - -
22/11:00pm 21.6 SSE 5 8 1013.7 - 0.0 - Mostly clear 10 - - - -
22/10:30pm 22.1 S 5 7 1013.7 - 0.0 - Mostly clear 10 - - - -
22/10:00pm 21.9 S 5 9 1013.5 - 0.0 - Mostly clear 10 - - - -
22/09:30pm 21.8 SSE 6 8 1013.3 - 0.0 - Mostly clear 10 - - - -
22/09:00pm 22.2 SSE 7 9 1013.0 R 0.0 - Mostly clear 10 - - - -
22/08:30pm 22.4 SSE 8 11 1012.8 - 0.0 - Mostly clear 10 - - - -
22/08:00pm 22.7 SSE 8 11 1012.6 - 0.0 - Mostly clear 10 - - - -
22/07:30pm 22.4 S 8 14 1012.0 - 0.0 - Mostly clear 10 - - - -
22/07:00pm 22.3 SSE 5 7 1011.8 - 0.0 - Mostly clear 10 - - - -
22/06:30pm 22.7 SSE 6 9 1011.4 - 0.0 - Mostly clear 10 - - - -
22/06:00pm 23.6 SE 12 15 1011.1 S 0.0 - Mostly clear 10 - - - -
22/05:30pm 24.7 SE 9 12 1010.9 - 0.0 - Mostly clear 10 - - - -
22/05:00pm 25.6 ESE 9 10 1010.6 - 0.0 - Mostly clear 10 - - - -
22/04:30pm 26.3 E 10 14 1010.4 - 0.0 - Mostly clear 10 - - - -
22/04:00pm 26.6 ENE 13 16 1010.4 - 0.0 - Mostly clear 10 - - - -
22/03:30pm 27.2 ENE 12 15 1010.4 - 0.0 - Mostly clear 10 - - - -
22/03:00pm 27.3 E 12 15 1010.5 S 0.0 - Mostly clear 10 - - - -
22/02:30pm 27.9 ENE 10 14 1010.6 - 0.0 - Mostly clear 10 - - - -
22/02:00pm 27.1 ENE 11 16 1010.9 - 0.0 - Mostly clear 10 - - - -
22/01:30pm 27.5 ENE 11 15 1011.4 - 0.0 - Mostly clear 10 - - - -
22/01:00pm 27.5 ENE 8 13 1011.7 - 0.0 - Mostly clear 10 - - - -
22/12:30pm 27.4 ESE 8 12 1012.1 - 0.0 - Mostly clear 10 - - - -
22/12:00pm 26.7 SE 7 11 1012.6 F 0.0 - Mostly clear 10 - - - -
22/11:30am 26.5 SE 9 11 1013.3 - 0.0 - Mostly clear 10 - - - -
22/11:00am 26.5 ESE 9 12 1013.7 - 0.0 - Mostly clear 10 - - - -
22/10:30am 25.5 SSE 8 11 1014.0 - 0.0 - Mostly clear 10 - - - -
22/10:00am 24.8 SSE 9 12 1014.1 - 0.0 - Mostly clear 10 - - - -
22/09:30am 24.5 SSE 8 11 1014.1 - 0.0 - Mostly clear 10 - - - -
22/09:00am 24.0 SE 9 11 1014.0 F 0.0 - Mostly clear 10 - - - -
22/08:30am 22.6 ESE 8 12 1013.7 - 0.0 - Mostly clear 10 - - - -
22/08:00am 21.3 SE 8 10 1013.6 - 0.0 - Mostly clear 10 - - - -
22/07:30am 19.8 NNW 3 5 1013.5 - 0.0 - Mostly clear 10 - - - -
22/07:00am 18.2 NW 3 4 1013.2 - 0.0 - Mostly clear 10 - - - -
22/06:30am 17.6 WNW 4 4 1012.8 - 0.0 - Mostly clear 10 - - - -
22/06:00am 18.4 S 5 7 1012.5 F 0.0 - Mostly clear 10 - - - -
22/05:30am 18.4 SW 5 9 1012.3 - 0.0 - Mostly clear 10 - - - -
22/05:00am 18.0 NW 1 4 1012.2 - 0.0 - Mostly clear 10 - - - -
22/04:30am 18.2 W 3 4 1012.2 - 0.0 - Mostly clear 10 - - - -
22/04:00am 18.8 WSW 3 4 1012.2 - 0.0 - Mostly clear 10 - - - -
22/03:30am 19.1 SSE 5 9 1012.2 - 0.0 - Mostly clear 10 - - - -
22/03:00am 19.8 CALM 0 0 1012.3 F 0.0 - Mostly clear 10 - - - -
22/02:30am 20.0 SSE 5 10 1012.7 - 0.0 - Mostly clear 10 - - - -

Other Formats:

Comma delimited format used in spreadsheet applications
http://www.bom.gov.au/fwo/IDQ60701/IDQ60701.94287.axf

JavaScript Object Notation format (JSON) in row-major order
http://www.bom.gov.au/fwo/IDQ60701/IDQ60701.94287.json